createdAt,value
2023-12-27T00:02:05.637Z,21.50
2023-12-27T00:04:32.667Z,21.50
2023-12-27T00:06:59.576Z,21.50
2023-12-27T00:09:26.622Z,21.50
2023-12-27T00:11:53.626Z,21.40
2023-12-27T00:14:21.105Z,21.40
2023-12-27T00:16:47.997Z,21.40
2023-12-27T00:19:14.979Z,21.40
2023-12-27T00:21:42.027Z,21.50
2023-12-27T00:24:08.967Z,21.40
2023-12-27T00:26:35.897Z,21.40
2023-12-27T00:29:02.737Z,21.40
2023-12-27T00:31:29.744Z,21.40
2023-12-27T00:33:57.040Z,21.40
2023-12-27T00:36:30.985Z,21.40
2023-12-27T00:38:58.534Z,21.40
2023-12-27T00:41:25.381Z,21.40
2023-12-27T00:43:52.237Z,21.40
2023-12-27T00:46:19.220Z,21.40
2023-12-27T00:48:46.183Z,21.40
2023-12-27T00:51:23.086Z,21.40
2023-12-27T00:53:50.575Z,21.40
2023-12-27T00:56:17.717Z,21.40
2023-12-27T00:58:44.648Z,21.40
2023-12-27T01:01:12.884Z,21.40
2023-12-27T01:03:40.206Z,21.40
2023-12-27T01:06:07.690Z,21.40
2023-12-27T01:08:34.604Z,21.40
2023-12-27T01:11:01.474Z,21.30
2023-12-27T01:13:29.895Z,21.40
2023-12-27T01:15:57.106Z,21.40
2023-12-27T01:18:24.092Z,21.30
2023-12-27T01:20:51.025Z,21.30
2023-12-27T01:23:17.900Z,21.30
2023-12-27T01:25:44.852Z,21.40
2023-12-27T01:28:11.842Z,21.30
2023-12-27T01:30:38.816Z,21.30
2023-12-27T01:33:05.939Z,21.30
2023-12-27T01:35:32.906Z,21.30
2023-12-27T01:38:00.016Z,21.30
2023-12-27T01:40:27.106Z,21.30
2023-12-27T01:42:53.972Z,21.30
2023-12-27T01:45:20.883Z,21.30
2023-12-27T01:47:48.396Z,21.30
2023-12-27T01:50:15.466Z,21.30
2023-12-27T01:52:42.740Z,21.30
2023-12-27T01:55:10.827Z,21.30
2023-12-27T01:57:41.509Z,21.30
2023-12-27T02:00:09.653Z,21.30
2023-12-27T02:02:39.848Z,21.30
2023-12-27T02:05:07.059Z,21.30
2023-12-27T02:07:34.342Z,21.30
2023-12-27T02:10:01.587Z,21.30
2023-12-27T02:12:31.924Z,21.30
2023-12-27T02:14:59.272Z,21.30
2023-12-27T02:17:27.052Z,21.30
2023-12-27T02:19:54.435Z,21.30
2023-12-27T02:22:21.860Z,21.30
2023-12-27T02:24:50.235Z,21.20
2023-12-27T02:27:17.307Z,21.20
2023-12-27T02:29:44.410Z,21.20
2023-12-27T02:32:11.361Z,21.20
2023-12-27T02:34:38.537Z,21.20
2023-12-27T02:37:05.581Z,21.20
2023-12-27T02:39:32.730Z,21.20
2023-12-27T02:41:59.612Z,21.20
2023-12-27T02:44:29.513Z,21.20
2023-12-27T02:46:56.493Z,21.20
2023-12-27T02:49:23.474Z,21.20
2023-12-27T02:51:50.407Z,21.20
2023-12-27T02:54:17.257Z,21.20
2023-12-27T02:56:44.125Z,21.20
2023-12-27T02:59:11.021Z,21.20
2023-12-27T03:01:38.069Z,21.20
2023-12-27T03:04:04.965Z,21.20
2023-12-27T03:06:31.950Z,21.20
2023-12-27T03:08:58.964Z,21.20
2023-12-27T03:11:25.837Z,21.20
2023-12-27T03:13:52.664Z,21.20
2023-12-27T03:16:20.566Z,21.20
2023-12-27T03:18:47.623Z,21.20
2023-12-27T03:21:14.634Z,21.20
2023-12-27T03:23:41.538Z,21.20
2023-12-27T03:26:08.426Z,21.20
2023-12-27T03:28:35.342Z,21.20
2023-12-27T03:31:02.499Z,21.10
2023-12-27T03:33:29.925Z,21.10
2023-12-27T03:35:56.910Z,21.10
2023-12-27T03:38:23.723Z,21.10
2023-12-27T03:40:50.876Z,21.10
2023-12-27T03:43:18.292Z,21.10
2023-12-27T03:45:46.501Z,21.10
2023-12-27T03:48:13.635Z,21.10
2023-12-27T03:50:41.704Z,21.10
2023-12-27T03:53:08.654Z,21.10
2023-12-27T03:55:35.772Z,21.10
2023-12-27T03:58:02.613Z,21.10
2023-12-27T04:00:30.129Z,21.10
2023-12-27T04:02:57.187Z,21.10
2023-12-27T04:05:24.262Z,21.10
2023-12-27T04:07:51.117Z,21.10
2023-12-27T04:10:18.077Z,21.10
2023-12-27T04:12:45.030Z,21.10
2023-12-27T04:15:11.988Z,21.10
2023-12-27T04:17:39.715Z,21.10
2023-12-27T04:20:07.444Z,21.10
2023-12-27T04:22:34.323Z,21.10
2023-12-27T04:25:01.243Z,21.10
2023-12-27T04:27:28.162Z,21.10
2023-12-27T04:29:55.091Z,21.10
2023-12-27T04:32:22.242Z,21.10
2023-12-27T04:34:49.106Z,21.10
2023-12-27T04:37:16.141Z,21.10
2023-12-27T04:39:43.047Z,21.10
2023-12-27T04:42:10.124Z,21.10
2023-12-27T04:44:37.054Z,21.10
2023-12-27T04:47:04.048Z,21.20
2023-12-27T04:49:31.041Z,21.20
2023-12-27T04:51:58.047Z,21.20
2023-12-27T04:54:24.983Z,21.20
2023-12-27T04:56:56.263Z,21.20
2023-12-27T04:59:23.442Z,21.20
2023-12-27T05:01:50.857Z,21.30
2023-12-27T05:04:17.944Z,21.30
2023-12-27T05:06:44.963Z,21.30
2023-12-27T05:09:12.012Z,21.20
2023-12-27T05:11:38.827Z,21.30
2023-12-27T05:14:05.747Z,21.30
2023-12-27T05:16:32.614Z,21.30
2023-12-27T05:18:59.695Z,21.30
2023-12-27T05:21:26.696Z,21.30
2023-12-27T05:23:53.565Z,21.30
2023-12-27T05:26:20.389Z,21.30
2023-12-27T05:28:47.268Z,21.30
2023-12-27T05:31:14.443Z,21.30
2023-12-27T05:33:41.638Z,21.30
2023-12-27T05:36:08.786Z,21.30
2023-12-27T05:38:36.281Z,21.30
2023-12-27T05:41:04.072Z,21.40
2023-12-27T05:43:30.917Z,21.40
2023-12-27T05:45:57.807Z,21.30
2023-12-27T05:48:24.764Z,21.30
2023-12-27T05:50:51.750Z,21.40
2023-12-27T05:53:18.631Z,21.40
2023-12-27T05:55:45.657Z,21.40
2023-12-27T05:58:12.531Z,21.40
2023-12-27T06:00:39.483Z,21.40
2023-12-27T06:03:06.487Z,21.40
2023-12-27T06:05:33.600Z,21.40
2023-12-27T06:08:00.678Z,21.40
2023-12-27T06:10:27.879Z,21.40
2023-12-27T06:12:54.963Z,21.40
2023-12-27T06:15:22.131Z,21.40
2023-12-27T06:17:49.195Z,21.40
2023-12-27T06:20:16.209Z,21.40
2023-12-27T06:22:43.582Z,21.40
2023-12-27T06:25:11.218Z,21.40
2023-12-27T06:27:38.288Z,21.40
2023-12-27T06:30:05.687Z,21.50
2023-12-27T06:32:32.798Z,21.50
2023-12-27T06:34:59.720Z,21.50
2023-12-27T06:37:26.656Z,21.50
2023-12-27T06:39:53.524Z,21.50
2023-12-27T06:42:20.623Z,21.50
2023-12-27T06:44:47.704Z,21.50
2023-12-27T06:47:14.565Z,21.50
2023-12-27T06:49:41.496Z,21.50
2023-12-27T06:52:08.428Z,21.50
2023-12-27T06:54:35.881Z,21.60
2023-12-27T06:57:04.471Z,21.60
2023-12-27T06:59:31.546Z,21.70
2023-12-27T07:01:58.492Z,21.70
2023-12-27T07:04:25.408Z,21.80
2023-12-27T07:06:52.406Z,21.80
2023-12-27T07:09:23.734Z,21.80
2023-12-27T07:11:50.665Z,21.90
2023-12-27T07:14:17.991Z,21.90
2023-12-27T07:16:45.626Z,21.90
2023-12-27T07:19:12.580Z,21.90
2023-12-27T07:21:39.717Z,22.00
2023-12-27T07:24:07.346Z,22.00
2023-12-27T07:26:34.368Z,22.10
2023-12-27T07:29:01.298Z,22.20
2023-12-27T07:31:28.249Z,22.20
2023-12-27T07:33:55.207Z,22.20
2023-12-27T07:36:23.517Z,22.30
2023-12-27T07:38:50.625Z,22.40
2023-12-27T07:41:17.530Z,22.40
2023-12-27T07:43:44.450Z,22.40
2023-12-27T07:46:12.014Z,22.50
2023-12-27T07:48:39.199Z,22.50
2023-12-27T07:51:06.823Z,22.50
2023-12-27T07:53:34.576Z,22.50
2023-12-27T07:56:01.484Z,22.50
2023-12-27T07:58:28.447Z,22.50
2023-12-27T08:00:55.525Z,22.40
2023-12-27T08:03:22.668Z,22.50
2023-12-27T08:05:49.845Z,22.50
2023-12-27T08:08:16.802Z,22.50
2023-12-27T08:10:44.628Z,22.50
2023-12-27T08:13:11.696Z,22.50
2023-12-27T08:15:38.572Z,22.50
2023-12-27T08:18:05.933Z,22.50
2023-12-27T08:20:33.186Z,22.50
2023-12-27T08:23:00.225Z,22.50
2023-12-27T08:25:27.112Z,22.60
2023-12-27T08:27:54.232Z,22.60
2023-12-27T08:30:21.409Z,22.60
2023-12-27T08:32:48.345Z,22.70
2023-12-27T08:35:18.967Z,22.70
2023-12-27T08:37:49.982Z,22.70
2023-12-27T08:40:18.128Z,22.80
2023-12-27T08:42:45.042Z,22.80
2023-12-27T08:45:12.733Z,22.80
2023-12-27T08:47:39.725Z,22.80
2023-12-27T08:50:07.161Z,22.80
2023-12-27T08:52:34.245Z,22.80
2023-12-27T08:55:01.565Z,22.80
2023-12-27T08:57:31.384Z,22.80
2023-12-27T09:00:00.267Z,22.90
2023-12-27T09:02:27.243Z,22.90
2023-12-27T09:04:54.137Z,22.90
2023-12-27T09:07:21.051Z,22.90
2023-12-27T09:09:47.979Z,23.00
2023-12-27T09:12:15.002Z,23.00
2023-12-27T09:14:41.837Z,23.00
2023-12-27T09:17:09.116Z,23.00
2023-12-27T09:19:36.150Z,23.00
2023-12-27T09:22:03.285Z,23.00
2023-12-27T09:24:31.305Z,23.00
2023-12-27T09:26:59.744Z,23.00
2023-12-27T09:29:26.691Z,23.00
2023-12-27T09:31:53.681Z,23.10
2023-12-27T09:34:20.825Z,23.10
2023-12-27T09:36:47.809Z,23.10
2023-12-27T09:39:15.063Z,23.10
2023-12-27T09:41:42.327Z,23.20
2023-12-27T09:44:10.852Z,23.20
2023-12-27T09:46:40.133Z,23.20
2023-12-27T09:49:10.392Z,23.30
2023-12-27T09:51:38.761Z,23.30
2023-12-27T09:54:05.701Z,23.30
2023-12-27T09:56:33.005Z,23.30
2023-12-27T09:59:01.257Z,23.40
2023-12-27T10:01:31.016Z,23.40
2023-12-27T10:04:05.341Z,23.40
2023-12-27T10:06:39.717Z,23.40
2023-12-27T10:09:06.837Z,23.40
2023-12-27T10:11:34.461Z,23.40
2023-12-27T10:14:01.349Z,23.40
2023-12-27T10:16:28.244Z,23.40
2023-12-27T10:18:55.239Z,23.40
2023-12-27T10:21:22.402Z,23.40
2023-12-27T10:23:49.518Z,23.40
2023-12-27T10:26:16.690Z,23.50
2023-12-27T10:28:48.234Z,23.60
2023-12-27T10:31:15.291Z,23.60
2023-12-27T10:33:42.939Z,23.60
2023-12-27T10:36:10.648Z,23.60
2023-12-27T10:38:39.028Z,23.60
2023-12-27T10:41:06.990Z,23.60
2023-12-27T10:43:34.604Z,23.70
2023-12-27T10:46:07.794Z,23.70
2023-12-27T10:48:35.345Z,23.70
2023-12-27T10:51:02.360Z,23.70
2023-12-27T10:53:30.448Z,23.70
2023-12-27T10:55:59.706Z,23.70
2023-12-27T10:58:29.634Z,23.80
2023-12-27T11:00:57.085Z,23.80
2023-12-27T11:03:24.332Z,23.80
2023-12-27T11:05:51.792Z,23.80
2023-12-27T11:08:19.710Z,23.90
2023-12-27T11:10:47.143Z,23.90
2023-12-27T11:13:15.820Z,23.90
2023-12-27T11:15:46.496Z,23.90
2023-12-27T11:18:14.580Z,24.00
2023-12-27T11:20:41.753Z,24.00
2023-12-27T11:23:09.536Z,24.00
2023-12-27T11:25:38.649Z,24.00
2023-12-27T11:28:05.776Z,24.00
2023-12-27T11:30:33.838Z,24.00
2023-12-27T11:33:01.324Z,24.00
2023-12-27T11:35:34.162Z,24.10
2023-12-27T11:38:16.332Z,24.10
2023-12-27T11:40:44.645Z,24.00
2023-12-27T11:43:16.624Z,24.10
2023-12-27T11:46:01.668Z,24.10
2023-12-27T11:48:32.645Z,24.10
2023-12-27T11:51:01.039Z,24.10
2023-12-27T11:53:28.800Z,24.10
2023-12-27T11:55:58.928Z,24.10
2023-12-27T11:58:37.470Z,24.20
2023-12-27T12:01:21.053Z,24.10
2023-12-27T12:03:51.642Z,24.20
2023-12-27T12:06:38.522Z,24.20
2023-12-27T12:09:06.871Z,24.30
2023-12-27T12:11:35.464Z,24.20
2023-12-27T12:14:03.347Z,24.30
2023-12-27T12:16:33.545Z,24.30
2023-12-27T12:19:00.677Z,24.30
2023-12-27T12:21:29.636Z,24.30
2023-12-27T12:23:56.489Z,24.30
2023-12-27T12:26:23.439Z,24.30
2023-12-27T12:28:57.300Z,24.30
2023-12-27T12:31:24.433Z,24.30
2023-12-27T12:33:51.618Z,24.30
2023-12-27T12:36:19.437Z,24.30
2023-12-27T12:38:46.468Z,24.30
2023-12-27T12:41:13.613Z,24.40
2023-12-27T12:43:40.583Z,24.40
2023-12-27T12:46:08.812Z,24.40
2023-12-27T12:48:38.175Z,24.40
2023-12-27T12:51:18.683Z,24.40
2023-12-27T12:53:45.895Z,24.40
2023-12-27T12:56:13.199Z,24.40
2023-12-27T12:58:42.120Z,24.40
2023-12-27T13:01:13.105Z,24.40
2023-12-27T13:03:42.561Z,24.50
2023-12-27T13:06:09.714Z,24.50
2023-12-27T13:08:37.505Z,24.50
2023-12-27T13:11:04.735Z,24.50
2023-12-27T13:13:32.041Z,24.60
2023-12-27T13:15:59.729Z,24.60
2023-12-27T13:18:27.029Z,24.70
2023-12-27T13:20:57.245Z,24.70
2023-12-27T13:23:24.132Z,24.70
2023-12-27T13:25:51.135Z,24.70
2023-12-27T13:28:23.707Z,24.70
2023-12-27T13:30:51.445Z,24.70
2023-12-27T13:33:20.362Z,24.70
2023-12-27T13:35:47.283Z,24.70
2023-12-27T13:38:14.433Z,24.70
2023-12-27T13:40:41.588Z,24.70
2023-12-27T13:43:08.636Z,24.80
2023-12-27T13:45:35.599Z,24.70
2023-12-27T13:48:03.250Z,24.70
2023-12-27T13:50:30.358Z,24.80
2023-12-27T13:52:57.402Z,24.70
2023-12-27T13:55:24.510Z,24.70
2023-12-27T13:57:51.973Z,24.70
2023-12-27T14:00:19.800Z,24.70
2023-12-27T14:02:49.368Z,24.70
2023-12-27T14:05:16.714Z,24.70
2023-12-27T14:07:43.751Z,24.70
2023-12-27T14:10:10.774Z,24.70
2023-12-27T14:12:44.073Z,24.70
2023-12-27T14:15:14.643Z,24.70
2023-12-27T14:17:42.714Z,24.70
2023-12-27T14:20:14.079Z,24.70
2023-12-27T14:22:42.392Z,24.70
2023-12-27T14:25:11.013Z,24.70
2023-12-27T14:27:41.586Z,24.70
2023-12-27T14:30:10.739Z,24.70
2023-12-27T14:32:38.758Z,24.80
2023-12-27T14:35:06.690Z,24.80
2023-12-27T14:37:33.742Z,24.80
2023-12-27T14:40:01.436Z,24.80
2023-12-27T14:42:29.020Z,24.80
2023-12-27T14:44:56.711Z,24.80
2023-12-27T14:47:23.723Z,24.80
2023-12-27T14:49:50.816Z,24.80
2023-12-27T14:52:17.768Z,24.80
2023-12-27T14:54:45.742Z,24.70
2023-12-27T14:57:12.930Z,24.70
2023-12-27T14:59:39.924Z,24.60
2023-12-27T15:02:07.706Z,24.60
2023-12-27T15:04:34.893Z,24.60
2023-12-27T15:07:02.817Z,24.60
2023-12-27T15:09:30.022Z,24.50
2023-12-27T15:11:56.970Z,24.50
2023-12-27T15:14:23.892Z,24.50
2023-12-27T15:16:51.372Z,24.50
2023-12-27T15:19:20.058Z,24.50
2023-12-27T15:21:47.982Z,24.40
2023-12-27T15:24:15.121Z,24.50
2023-12-27T15:26:42.063Z,24.40
2023-12-27T15:29:09.242Z,24.40
2023-12-27T15:31:36.509Z,24.40
2023-12-27T15:34:04.217Z,24.40
2023-12-27T15:36:31.484Z,24.30
2023-12-27T15:38:58.418Z,24.30
2023-12-27T15:41:30.018Z,24.30
2023-12-27T15:43:59.715Z,24.20
2023-12-27T15:46:27.625Z,24.20
2023-12-27T15:48:55.405Z,24.20
2023-12-27T15:51:23.793Z,24.20
2023-12-27T15:53:51.367Z,24.10
2023-12-27T15:56:25.316Z,24.10
2023-12-27T15:58:56.596Z,24.10
2023-12-27T16:01:24.490Z,24.10
2023-12-27T16:03:52.364Z,24.10
2023-12-27T16:06:20.236Z,24.00
2023-12-27T16:08:47.267Z,24.00
2023-12-27T16:11:14.267Z,24.00
2023-12-27T16:13:41.168Z,24.00
2023-12-27T16:16:08.832Z,24.00
2023-12-27T16:18:36.619Z,24.00
2023-12-27T16:21:05.289Z,24.00
2023-12-27T16:23:33.098Z,24.00
2023-12-27T16:26:00.687Z,24.00
2023-12-27T16:28:27.821Z,24.00
2023-12-27T16:30:55.040Z,23.90
2023-12-27T16:33:22.184Z,23.90
2023-12-27T16:35:56.968Z,23.90
2023-12-27T16:38:24.429Z,23.90
2023-12-27T16:40:52.173Z,23.80
2023-12-27T16:43:20.135Z,23.80
2023-12-27T16:45:47.759Z,23.80
2023-12-27T16:48:16.650Z,23.80
2023-12-27T16:50:45.430Z,23.70
2023-12-27T16:53:13.120Z,23.70
2023-12-27T16:55:40.221Z,23.70
2023-12-27T16:58:07.790Z,23.70
2023-12-27T17:00:35.994Z,23.70
2023-12-27T17:03:04.066Z,23.70
2023-12-27T17:05:31.109Z,23.70
2023-12-27T17:07:58.215Z,23.60
2023-12-27T17:10:26.174Z,23.60
2023-12-27T17:12:53.076Z,23.60
2023-12-27T17:15:20.207Z,23.60
2023-12-27T17:17:47.451Z,23.60
2023-12-27T17:20:14.437Z,23.50
2023-12-27T17:22:41.365Z,23.50
2023-12-27T17:25:08.902Z,23.50
2023-12-27T17:27:37.161Z,23.40
2023-12-27T17:30:04.670Z,23.40
2023-12-27T17:32:31.707Z,23.40
2023-12-27T17:34:58.705Z,23.40
2023-12-27T17:37:26.620Z,23.40
2023-12-27T17:39:53.571Z,23.30
2023-12-27T17:42:20.458Z,23.30
2023-12-27T17:44:47.343Z,23.30
2023-12-27T17:47:14.319Z,23.20
2023-12-27T17:49:41.284Z,23.30
2023-12-27T17:52:08.632Z,23.20
2023-12-27T17:54:35.582Z,23.20
2023-12-27T17:57:02.585Z,23.20
2023-12-27T17:59:30.883Z,23.10
2023-12-27T18:01:59.556Z,23.10
2023-12-27T18:04:28.300Z,23.10
2023-12-27T18:06:55.295Z,23.10
2023-12-27T18:09:22.796Z,23.00
2023-12-27T18:11:50.189Z,23.00
2023-12-27T18:14:17.202Z,23.00
2023-12-27T18:16:44.229Z,23.00
2023-12-27T18:19:11.319Z,23.00
2023-12-27T18:21:38.309Z,22.90
2023-12-27T18:24:05.444Z,22.90
2023-12-27T18:26:39.326Z,22.90
2023-12-27T18:29:09.789Z,22.90
2023-12-27T18:31:40.869Z,22.90
2023-12-27T18:34:08.271Z,22.90
2023-12-27T18:36:35.392Z,22.80
2023-12-27T18:39:02.269Z,22.80
2023-12-27T18:41:31.642Z,22.80
2023-12-27T18:43:58.694Z,22.80
2023-12-27T18:46:25.634Z,22.70
2023-12-27T18:48:52.805Z,22.70
2023-12-27T18:51:20.935Z,22.70
2023-12-27T18:53:47.959Z,22.70
2023-12-27T18:56:14.920Z,22.70
2023-12-27T18:58:41.832Z,22.60
2023-12-27T19:01:09.190Z,22.70
2023-12-27T19:03:39.255Z,22.60
2023-12-27T19:06:06.956Z,22.60
2023-12-27T19:08:33.882Z,22.60
2023-12-27T19:11:01.696Z,22.60
2023-12-27T19:13:28.729Z,22.60
2023-12-27T19:15:55.735Z,22.60
2023-12-27T19:18:23.210Z,22.60
2023-12-27T19:20:50.382Z,22.50
2023-12-27T19:23:17.350Z,22.50
2023-12-27T19:25:44.228Z,22.60
2023-12-27T19:28:14.208Z,22.60
2023-12-27T19:30:44.257Z,22.50
2023-12-27T19:33:11.570Z,22.50
2023-12-27T19:35:38.623Z,22.50
2023-12-27T19:38:07.044Z,22.50
2023-12-27T19:40:33.893Z,22.50
2023-12-27T19:43:02.028Z,22.50
2023-12-27T19:45:31.397Z,22.50
2023-12-27T19:47:58.594Z,22.50
2023-12-27T19:50:25.722Z,22.40
2023-12-27T19:52:52.531Z,22.40
2023-12-27T19:55:19.488Z,22.40
2023-12-27T19:57:46.455Z,22.40
2023-12-27T20:00:14.401Z,22.40
2023-12-27T20:02:41.701Z,22.40
2023-12-27T20:05:08.858Z,22.30
2023-12-27T20:07:35.994Z,22.30
2023-12-27T20:10:03.289Z,22.30
2023-12-27T20:12:30.225Z,22.30
2023-12-27T20:14:57.126Z,22.30
2023-12-27T20:17:24.067Z,22.30
2023-12-27T20:19:51.477Z,22.30
2023-12-27T20:22:18.443Z,22.30
2023-12-27T20:24:45.498Z,22.40
2023-12-27T20:27:13.049Z,22.30
2023-12-27T20:29:40.594Z,22.40
2023-12-27T20:32:07.555Z,22.30
2023-12-27T20:34:35.767Z,22.30
2023-12-27T20:37:03.604Z,22.30
2023-12-27T20:39:30.867Z,22.30
2023-12-27T20:41:58.444Z,22.30
2023-12-27T20:44:26.239Z,22.30
2023-12-27T20:46:53.492Z,22.30
2023-12-27T20:49:20.811Z,22.30
2023-12-27T20:51:49.115Z,22.20
2023-12-27T20:54:20.976Z,22.20
2023-12-27T20:56:49.185Z,22.20
2023-12-27T20:59:16.648Z,22.30
2023-12-27T21:01:43.621Z,22.20
2023-12-27T21:04:11.298Z,22.20
2023-12-27T21:06:38.535Z,22.20
2023-12-27T21:09:05.714Z,22.20
2023-12-27T21:11:42.507Z,22.20
2023-12-27T21:14:09.855Z,22.20
2023-12-27T21:16:37.746Z,22.20
2023-12-27T21:19:05.075Z,22.20
2023-12-27T21:21:32.256Z,22.20
2023-12-27T21:23:59.174Z,22.20
2023-12-27T21:26:26.515Z,22.20
2023-12-27T21:28:53.762Z,22.20
2023-12-27T21:31:21.009Z,22.20
2023-12-27T21:33:48.335Z,22.20
2023-12-27T21:36:25.612Z,22.20
2023-12-27T21:38:54.820Z,22.20
2023-12-27T21:41:23.137Z,22.20
2023-12-27T21:43:50.240Z,22.20
2023-12-27T21:46:21.907Z,22.10
2023-12-27T21:48:49.052Z,22.20
2023-12-27T21:51:23.200Z,22.10
2023-12-27T21:53:50.300Z,22.10
2023-12-27T21:56:24.724Z,22.20
2023-12-27T21:58:53.883Z,22.10
2023-12-27T22:01:21.240Z,22.20
2023-12-27T22:03:49.124Z,22.10
2023-12-27T22:06:16.443Z,22.10
2023-12-27T22:08:43.771Z,22.10
2023-12-27T22:11:10.941Z,22.10
2023-12-27T22:13:40.489Z,22.10
2023-12-27T22:16:11.917Z,22.10
2023-12-27T22:18:38.904Z,22.10
2023-12-27T22:21:07.064Z,22.10
2023-12-27T22:23:33.949Z,22.10
2023-12-27T22:26:03.928Z,22.10
2023-12-27T22:28:30.835Z,22.10
2023-12-27T22:30:57.933Z,22.10
2023-12-27T22:33:25.190Z,22.10
2023-12-27T22:35:52.109Z,22.10
2023-12-27T22:38:19.455Z,22.10
2023-12-27T22:40:46.299Z,22.10
2023-12-27T22:43:13.783Z,22.00
2023-12-27T22:45:41.068Z,22.00
2023-12-27T22:48:08.250Z,22.10
2023-12-27T22:50:38.218Z,22.00
2023-12-27T22:53:05.209Z,22.00
2023-12-27T22:55:32.028Z,22.00
2023-12-27T22:57:59.188Z,22.00
2023-12-27T23:00:27.752Z,22.00
2023-12-27T23:02:54.845Z,22.00
2023-12-27T23:05:22.614Z,22.00
2023-12-27T23:07:49.752Z,22.00
2023-12-27T23:10:16.682Z,22.00
2023-12-27T23:12:43.575Z,22.00
2023-12-27T23:15:10.847Z,22.00
2023-12-27T23:17:39.040Z,22.00
2023-12-27T23:20:06.580Z,22.00
2023-12-27T23:22:33.968Z,22.00
2023-12-27T23:25:01.219Z,22.00
2023-12-27T23:27:28.489Z,22.00
2023-12-27T23:29:55.572Z,22.00
2023-12-27T23:32:23.294Z,22.00
2023-12-27T23:34:51.406Z,22.00
2023-12-27T23:37:18.378Z,22.00
2023-12-27T23:39:45.240Z,22.00
2023-12-27T23:42:13.514Z,22.00
2023-12-27T23:44:40.414Z,22.00
2023-12-27T23:47:07.291Z,22.00
2023-12-27T23:49:34.954Z,22.00
2023-12-27T23:52:02.002Z,21.90
2023-12-27T23:54:29.177Z,22.00
2023-12-27T23:56:56.125Z,22.00
2023-12-27T23:59:22.977Z,22.00
